createdAt,value
2019-03-03T00:04:04.873Z,115.06
2019-03-03T00:09:14.067Z,57.06
2019-03-03T00:14:23.180Z,57.03
2019-03-03T00:19:32.447Z,53.75
2019-03-03T00:24:41.724Z,53.75
2019-03-03T00:29:50.775Z,201.20
2019-03-03T00:35:00.167Z,46.72
2019-03-03T00:40:09.137Z,46.74
2019-03-03T00:45:18.447Z,55.35
2019-03-03T00:50:27.519Z,132.77
2019-03-03T00:55:36.652Z,55.32
2019-03-03T01:00:45.817Z,51.85
2019-03-03T01:05:54.961Z,51.70
2019-03-03T01:11:04.213Z,52.59
2019-03-03T01:16:13.354Z,47.16
2019-03-03T01:21:22.541Z,53.27
2019-03-03T01:26:31.668Z,132.52
2019-03-03T01:31:40.758Z,69.83
2019-03-03T01:36:49.968Z,58.44
2019-03-03T01:41:59.045Z,52.90
2019-03-03T01:47:08.155Z,52.22
2019-03-03T01:52:17.238Z,52.19
2019-03-03T01:57:26.347Z,51.20
2019-03-03T02:02:35.397Z,51.64
2019-03-03T02:07:44.521Z,48.33
2019-03-03T02:12:53.597Z,56.35
2019-03-03T02:18:02.721Z,118.60
2019-03-03T02:23:11.804Z,49.47
2019-03-03T02:28:20.932Z,64.77
2019-03-03T02:33:30.010Z,50.75
2019-03-03T02:38:39.196Z,47.27
2019-03-03T02:43:48.305Z,48.86
2019-03-03T02:48:57.576Z,113.23
2019-03-03T02:54:06.636Z,48.68
2019-03-03T02:59:15.889Z,44.87
2019-03-03T03:04:24.948Z,49.61
2019-03-03T03:09:34.171Z,47.23
2019-03-03T03:14:43.225Z,44.84
2019-03-03T03:19:52.498Z,46.93
2019-03-03T03:25:01.581Z,43.88
2019-03-03T03:30:10.756Z,46.10
2019-03-03T03:35:20.113Z,49.60
2019-03-03T03:40:29.213Z,107.13
2019-03-03T03:45:38.278Z,60.63
2019-03-03T03:50:47.438Z,63.32
2019-03-03T03:55:56.511Z,62.67
2019-03-03T04:01:05.848Z,45.58
2019-03-03T04:06:14.829Z,42.66
2019-03-03T04:11:24.162Z,47.57
2019-03-03T04:16:33.199Z,48.94
2019-03-03T04:21:42.475Z,51.23
2019-03-03T04:26:51.737Z,46.97
2019-03-03T04:32:00.972Z,44.47
2019-03-03T04:37:10.065Z,43.59
2019-03-03T04:40:19.011Z,92.98
2019-03-03T04:45:28.106Z,44.73
2019-03-03T04:50:37.173Z,54.63
2019-03-03T04:55:46.434Z,43.08
2019-03-03T05:00:55.473Z,41.12
2019-03-03T05:06:04.624Z,36.98
2019-03-03T05:11:13.681Z,43.18
2019-03-03T05:16:22.921Z,44.14
2019-03-03T05:21:31.973Z,41.07
2019-03-03T05:26:41.067Z,41.30
2019-03-03T05:31:50.114Z,42.56
2019-03-03T05:36:59.250Z,36.90
2019-03-03T05:42:08.341Z,38.60
2019-03-03T05:47:17.445Z,102.55
2019-03-03T05:52:26.510Z,41.39
2019-03-03T05:57:35.685Z,38.52
2019-03-03T06:02:44.742Z,37.44
2019-03-03T06:07:53.849Z,38.98
2019-03-03T06:13:02.920Z,38.19
2019-03-03T06:18:12.200Z,66.50
2019-03-03T06:23:21.306Z,40.66
2019-03-03T06:28:30.430Z,53.70
2019-03-03T06:33:39.521Z,57.13
2019-03-03T06:38:48.768Z,39.32
2019-03-03T06:43:57.834Z,40.10
2019-03-03T06:49:06.953Z,38.02
2019-03-03T06:54:16.038Z,261.35
2019-03-03T06:59:25.249Z,196.97
2019-03-03T07:04:34.325Z,32.00
2019-03-03T07:09:43.514Z,38.41
2019-03-03T07:14:52.561Z,41.47
2019-03-03T07:20:01.765Z,40.76
2019-03-03T07:25:10.816Z,36.46
2019-03-03T07:30:20.114Z,42.83
2019-03-03T07:35:29.186Z,42.86
2019-03-03T07:40:38.393Z,38.70
2019-03-03T07:45:47.504Z,38.88
2019-03-03T07:50:56.688Z,81.24
2019-03-03T07:56:05.780Z,37.15
2019-03-03T08:01:15.088Z,35.88
2019-03-03T08:06:24.248Z,32.84
2019-03-03T08:11:33.382Z,51.47
2019-03-03T08:16:42.487Z,56.17
2019-03-03T08:21:51.670Z,35.40
2019-03-03T08:27:00.778Z,34.97
2019-03-03T08:32:09.926Z,35.72
2019-03-03T08:37:19.000Z,52.66
2019-03-03T08:42:28.139Z,35.96
2019-03-03T08:47:37.233Z,36.55
2019-03-03T08:52:46.349Z,35.35
2019-03-03T08:57:55.412Z,34.96
2019-03-03T09:03:04.579Z,53.71
2019-03-03T09:08:13.645Z,57.65
2019-03-03T09:13:22.742Z,62.82
2019-03-03T09:18:31.827Z,37.23
2019-03-03T09:23:40.961Z,54.93
2019-03-03T09:28:50.046Z,57.19
2019-03-03T09:33:59.226Z,62.09
2019-03-03T09:39:08.301Z,35.96
2019-03-03T09:44:17.487Z,57.55
2019-03-03T09:49:26.664Z,36.63
2019-03-03T09:54:35.938Z,36.61
2019-03-03T09:59:44.954Z,34.15
2019-03-03T10:04:54.354Z,55.29
2019-03-03T10:10:03.454Z,58.21
2019-03-03T10:15:12.561Z,33.86
2019-03-03T10:20:21.701Z,39.71
2019-03-03T10:25:30.858Z,56.32
2019-03-03T10:30:39.977Z,61.23
2019-03-03T10:35:50.070Z,153.08
2019-03-03T10:40:49.101Z,39.90
2019-03-03T10:45:58.273Z,196.52
2019-03-03T10:51:07.393Z,217.44
2019-03-03T10:56:16.645Z,233.19
2019-03-03T11:01:24.290Z,37.21
2019-03-03T11:06:33.423Z,202.98
2019-03-03T11:11:42.500Z,223.62
2019-03-03T11:16:51.755Z,227.06
2019-03-03T11:22:00.855Z,215.03
2019-03-03T11:27:10.024Z,233.78
2019-03-03T11:32:19.099Z,248.22
2019-03-03T11:37:28.198Z,237.15
2019-03-03T11:42:37.315Z,252.77
2019-03-03T11:47:46.601Z,255.88
2019-03-03T11:52:55.666Z,260.85
2019-03-03T11:58:04.856Z,259.74
2019-03-03T12:03:13.967Z,265.05
2019-03-03T12:08:23.078Z,262.21
2019-03-03T12:13:32.158Z,175.73
2019-03-03T12:18:41.316Z,245.07
2019-03-03T12:23:50.378Z,265.86
2019-03-03T12:28:59.777Z,266.40
2019-03-03T12:34:08.870Z,258.16
2019-03-03T12:39:18.213Z,192.02
2019-03-03T12:44:27.379Z,255.33
2019-03-03T12:49:36.724Z,331.44
2019-03-03T12:54:45.809Z,303.19
2019-03-03T12:59:54.985Z,295.55
2019-03-03T13:05:04.095Z,291.40
2019-03-03T13:10:13.318Z,217.56
2019-03-03T13:15:22.430Z,285.00
2019-03-03T13:20:31.545Z,295.52
2019-03-03T13:25:40.769Z,226.92
2019-03-03T13:30:50.098Z,299.34
2019-03-03T13:35:59.209Z,316.47
2019-03-03T13:41:08.350Z,316.06
2019-03-03T13:46:17.432Z,307.33
2019-03-03T13:51:26.675Z,228.07
2019-03-03T13:56:35.739Z,307.21
2019-03-03T14:01:44.985Z,324.45
2019-03-03T14:06:54.095Z,329.13
2019-03-03T14:12:03.325Z,239.65
2019-03-03T14:17:12.414Z,244.97
2019-03-03T14:22:21.676Z,313.37
2019-03-03T14:27:30.751Z,327.02
2019-03-03T14:32:40.047Z,328.66
2019-03-03T14:37:49.121Z,330.94
2019-03-03T14:42:58.294Z,329.08
2019-03-03T14:48:07.372Z,323.05
2019-03-03T14:53:16.770Z,331.30
2019-03-03T14:58:25.845Z,340.30
2019-03-03T15:03:35.014Z,345.27
2019-03-03T15:08:44.057Z,342.54
2019-03-03T15:13:53.263Z,249.66
2019-03-03T15:19:02.330Z,329.72
2019-03-03T15:24:11.602Z,344.26
2019-03-03T15:29:20.767Z,255.25
2019-03-03T15:34:29.914Z,331.67
2019-03-03T15:39:39.015Z,318.14
2019-03-03T15:44:48.121Z,306.46
2019-03-03T15:49:57.264Z,324.97
2019-03-03T15:55:06.539Z,334.66
2019-03-03T16:00:15.636Z,335.06
2019-03-03T16:05:24.757Z,232.59
2019-03-03T16:10:33.828Z,327.53
2019-03-03T16:15:43.021Z,235.35
2019-03-03T16:20:52.149Z,341.50
2019-03-03T16:26:01.323Z,357.85
2019-03-03T16:31:10.477Z,352.74
2019-03-03T16:36:19.779Z,358.84
2019-03-03T16:41:28.898Z,347.43
2019-03-03T16:46:38.245Z,350.90
2019-03-03T16:51:47.346Z,207.04
2019-03-03T16:56:56.526Z,325.64
2019-03-03T17:02:05.654Z,353.13
2019-03-03T17:07:14.828Z,363.11
2019-03-03T17:12:23.930Z,330.12
2019-03-03T17:17:33.098Z,320.91
2019-03-03T17:22:42.253Z,307.68
2019-03-03T17:27:51.418Z,306.34
2019-03-03T17:33:00.608Z,303.82
2019-03-03T17:38:09.993Z,80.01
2019-03-03T17:43:19.135Z,48.65
2019-03-03T17:48:28.429Z,295.94
2019-03-03T17:53:37.459Z,54.00
2019-03-03T17:58:46.588Z,317.63
2019-03-03T18:03:55.697Z,296.96
2019-03-03T18:09:04.940Z,78.39
2019-03-03T18:14:14.039Z,79.56
2019-03-03T18:19:23.670Z,249.02
2019-03-03T18:24:32.764Z,75.24
2019-03-03T18:29:42.013Z,260.07
2019-03-03T18:34:51.096Z,281.59
2019-03-03T18:40:00.341Z,292.14
2019-03-03T18:45:09.358Z,72.35
2019-03-03T18:50:18.600Z,75.98
2019-03-03T18:55:27.693Z,239.65
2019-03-03T19:00:36.818Z,69.35
2019-03-03T19:05:55.210Z,232.59
2019-03-03T19:10:55.191Z,269.97
2019-03-03T19:16:04.398Z,277.19
2019-03-03T19:21:13.574Z,285.89
2019-03-03T19:26:22.707Z,290.62
2019-03-03T19:31:31.928Z,279.30
2019-03-03T19:36:41.035Z,280.31
2019-03-03T19:41:50.228Z,266.94
2019-03-03T19:47:00.473Z,67.39
2019-03-03T19:51:59.633Z,227.20
2019-03-03T19:57:08.701Z,70.58
2019-03-03T20:02:17.982Z,77.34
2019-03-03T20:07:27.076Z,355.06
2019-03-03T20:12:36.403Z,279.06
2019-03-03T20:17:45.514Z,340.12
2019-03-03T20:22:54.789Z,344.15
2019-03-03T20:28:03.885Z,347.59
2019-03-03T20:33:13.163Z,346.64
2019-03-03T20:38:24.466Z,348.54
2019-03-03T20:43:23.624Z,261.62
2019-03-03T20:48:32.702Z,268.60
2019-03-03T20:53:41.832Z,330.16
2019-03-03T20:58:50.918Z,351.28
2019-03-03T21:04:00.195Z,351.62
2019-03-03T21:09:09.305Z,352.72
2019-03-03T21:14:18.538Z,350.59
2019-03-03T21:19:27.589Z,352.69
2019-03-03T21:24:36.704Z,228.80
2019-03-03T21:29:46.108Z,261.10
2019-03-03T21:34:55.258Z,311.46
2019-03-03T21:40:04.325Z,337.55
2019-03-03T21:45:13.551Z,343.41
2019-03-03T21:50:22.659Z,338.09
2019-03-03T21:55:31.791Z,210.53
2019-03-03T22:00:40.852Z,320.86
2019-03-03T22:05:49.941Z,340.68
2019-03-03T22:10:58.982Z,344.06
2019-03-03T22:16:08.234Z,335.45
2019-03-03T22:21:17.337Z,226.29
2019-03-03T22:26:26.448Z,250.83
2019-03-03T22:31:35.509Z,303.09
2019-03-03T22:36:44.706Z,329.34
2019-03-03T22:41:53.785Z,332.01
2019-03-03T22:47:03.030Z,331.30
2019-03-03T22:52:12.060Z,342.56
2019-03-03T22:57:21.293Z,347.00
2019-03-03T23:02:30.353Z,343.25
2019-03-03T23:07:39.590Z,343.31
2019-03-03T23:12:48.681Z,254.31
2019-03-03T23:17:57.801Z,342.75
2019-03-03T23:23:06.916Z,250.31
2019-03-03T23:28:16.062Z,271.14
2019-03-03T23:33:25.129Z,262.44
2019-03-03T23:38:34.427Z,306.23
2019-03-03T23:43:43.539Z,331.93
2019-03-03T23:48:52.790Z,325.65
2019-03-03T23:54:01.860Z,330.61
2019-03-03T23:59:11.063Z,336.49
